DENVER INTL

KDEN (DEN)
Denver, Colorado
Towered

Vatsim Metar:
KDEN 260753Z 02005KT 10SM BKN050 OVC070 15/10 A3044 RMK AO2 RAB04E23 SLP249 P0000 T01500100 $

No ATC Online

Traffic

Inbound:
Ident
Type
Name
ETA
Phase
AAL24
A320
Andrew Juggerbutton KSFO
10:15 Z
Climb

Outbound:
Ident
Type
Name
Destination
Phase

SIDs

STARS

Alternate Minimums

Hot Spots